createdAt,value
2019-01-30T13:07:00.731Z,994.91
2019-01-30T13:08:10.161Z,994.85
2019-01-30T13:09:19.586Z,994.91
2019-01-30T13:10:31.403Z,994.9
2019-01-30T13:11:41.082Z,994.82
2019-01-30T13:12:50.509Z,994.82
2019-01-30T13:14:00.184Z,994.83
2019-01-30T13:15:09.609Z,994.83
2019-01-30T13:16:19.135Z,994.7
2019-01-30T13:17:29.055Z,994.71
2019-01-30T13:18:38.726Z,994.74
2019-01-30T13:19:48.412Z,994.74
2019-01-30T13:20:57.856Z,994.78
2019-01-30T13:22:06.784Z,994.69
2019-01-30T13:23:16.469Z,994.73
2019-01-30T13:24:25.895Z,994.76
2019-01-30T13:25:35.565Z,994.68
2019-01-30T13:26:45.486Z,994.7
2019-01-30T13:27:55.158Z,994.72
2019-01-30T13:29:04.836Z,994.69
2019-01-30T13:30:14.268Z,994.71
2019-01-30T13:31:23.447Z,994.74
2019-01-30T13:32:32.621Z,994.67
2019-01-30T13:33:42.055Z,994.67
2019-01-30T13:34:51.982Z,994.68
2019-01-30T13:36:01.408Z,994.66
2019-01-30T13:37:11.098Z,994.65
2019-01-30T13:38:20.034Z,994.6
2019-01-30T13:39:29.955Z,994.64
2019-01-30T13:40:38.880Z,994.62
2019-01-30T13:41:48.424Z,994.62
2019-01-30T13:43:00.411Z,994.62
2019-01-30T13:44:09.593Z,994.61
2019-01-30T13:45:19.015Z,994.62
2019-01-30T13:46:29.056Z,994.59
2019-01-30T13:47:38.728Z,994.51
2019-01-30T13:48:48.854Z,994.53
2019-01-30T13:49:58.681Z,994.45
2019-01-30T13:51:10.979Z,994.55
2019-01-30T13:52:20.824Z,994.51
2019-01-30T13:53:30.797Z,994.54
2019-01-30T13:54:42.523Z,994.53
2019-01-30T13:55:52.201Z,994.52
2019-01-30T13:57:02.256Z,994.52
2019-01-30T13:58:12.062Z,994.48
2019-01-30T13:59:21.313Z,994.45
2019-01-30T14:00:31.445Z,994.49
2019-01-30T14:01:41.411Z,994.52
2019-01-30T14:02:51.137Z,994.47
2019-01-30T14:04:01.195Z,994.49
2019-01-30T14:05:11.334Z,994.46
2019-01-30T14:06:21.090Z,994.46
2019-01-30T14:07:30.843Z,994.43
2019-01-30T14:08:40.613Z,994.43
2019-01-30T14:09:50.039Z,994.44
2019-01-30T14:10:59.548Z,994.48
2019-01-30T14:12:09.103Z,994.44
2019-01-30T14:13:18.546Z,994.43
2019-01-30T14:14:28.240Z,994.47
2019-01-30T14:15:37.917Z,994.5
2019-01-30T14:16:47.925Z,994.48
2019-01-30T14:17:57.939Z,994.48
2019-01-30T14:19:07.201Z,994.49
2019-01-30T14:20:16.969Z,994.5
2019-01-30T14:21:26.431Z,994.48
2019-01-30T14:22:36.387Z,994.51
2019-01-30T14:23:45.870Z,994.53
2019-01-30T14:24:55.689Z,994.53
2019-01-30T14:26:05.908Z,994.48
2019-01-30T14:27:15.368Z,994.46
2019-01-30T14:28:25.090Z,994.48
2019-01-30T14:29:34.833Z,994.45
2019-01-30T14:30:44.852Z,994.47
2019-01-30T14:31:54.812Z,994.49
2019-01-30T14:33:04.097Z,994.47
2019-01-30T14:34:13.884Z,994.43
2019-01-30T14:35:23.642Z,994.48
2019-01-30T14:36:33.645Z,994.43
2019-01-30T14:37:43.363Z,994.45
2019-01-30T14:38:53.152Z,994.44
2019-01-30T14:40:03.275Z,994.53
2019-01-30T14:41:12.930Z,994.47
2019-01-30T14:42:22.700Z,994.47
2019-01-30T14:43:32.756Z,994.5
2019-01-30T14:44:42.803Z,994.51
2019-01-30T14:45:52.906Z,994.53
2019-01-30T14:47:02.383Z,994.45
2019-01-30T14:48:13.313Z,994.53
2019-01-30T14:49:22.786Z,994.52
2019-01-30T14:50:32.845Z,994.47
2019-01-30T14:51:42.868Z,994.48
2019-01-30T14:52:52.649Z,994.48
2019-01-30T14:54:02.729Z,994.52
2019-01-30T14:55:12.801Z,994.54
2019-01-30T14:56:22.570Z,994.47
2019-01-30T14:57:32.306Z,994.53
2019-01-30T14:58:42.313Z,994.53
2019-01-30T14:59:52.033Z,994.52
2019-01-30T15:01:02.062Z,994.53
2019-01-30T15:02:12.059Z,994.53
2019-01-30T15:03:21.786Z,994.52
2019-01-30T15:04:31.268Z,994.57
2019-01-30T15:05:41.057Z,994.51
2019-01-30T15:06:51.185Z,994.52
2019-01-30T15:08:01.273Z,994.5
2019-01-30T15:09:10.730Z,994.53
2019-01-30T15:10:20.789Z,994.56
2019-01-30T15:11:30.282Z,994.53
2019-01-30T15:12:39.830Z,994.52
2019-01-30T15:13:49.472Z,994.53
2019-01-30T15:14:59.474Z,994.54
2019-01-30T15:16:09.487Z,994.55
2019-01-30T15:17:19.465Z,994.57
2019-01-30T15:18:29.473Z,994.62
2019-01-30T15:19:39.454Z,994.64
2019-01-30T15:20:49.430Z,994.7
2019-01-30T15:21:59.014Z,994.6
2019-01-30T15:23:08.445Z,994.59
2019-01-30T15:24:18.372Z,994.58
2019-01-30T15:25:27.557Z,994.64
2019-01-30T15:26:37.230Z,994.63
2019-01-30T15:27:46.907Z,994.63
2019-01-30T15:28:56.518Z,994.69
2019-01-30T15:30:05.694Z,994.62
2019-01-30T15:31:15.621Z,994.61
2019-01-30T15:32:25.298Z,994.59
2019-01-30T15:33:37.019Z,994.63
2019-01-30T15:34:46.693Z,994.61
2019-01-30T15:35:56.384Z,994.57
2019-01-30T15:37:05.555Z,994.62
2019-01-30T15:38:15.591Z,994.63
2019-01-30T15:39:28.365Z,994.62
2019-01-30T15:40:38.046Z,994.63
2019-01-30T15:41:47.482Z,994.63
2019-01-30T15:42:57.153Z,994.61
2019-01-30T15:44:06.566Z,994.65
2019-01-30T15:45:16.513Z,994.62
2019-01-30T15:46:25.692Z,994.68
2019-01-30T15:47:35.613Z,994.67
2019-01-30T15:48:45.549Z,994.65
2019-01-30T15:49:55.226Z,994.64
2019-01-30T15:51:04.922Z,994.7
2019-01-30T15:52:14.844Z,994.72
2019-01-30T15:53:24.516Z,994.76
2019-01-30T15:54:34.195Z,994.75
2019-01-30T15:55:43.622Z,994.71
2019-01-30T15:56:53.296Z,994.72
2019-01-30T15:58:03.233Z,994.68
2019-01-30T15:59:12.913Z,994.69
2019-01-30T16:00:22.340Z,994.72
2019-01-30T16:01:34.618Z,994.7
2019-01-30T16:02:44.054Z,994.72
2019-01-30T16:03:53.472Z,994.72
2019-01-30T16:05:06.526Z,994.67
2019-01-30T16:06:16.200Z,994.74
2019-01-30T16:07:25.620Z,994.7
2019-01-30T16:08:35.298Z,994.74
2019-01-30T16:09:44.722Z,994.74
2019-01-30T16:10:54.255Z,994.76
2019-01-30T16:12:03.677Z,994.75
2019-01-30T16:13:13.343Z,994.74
2019-01-30T16:14:22.764Z,994.75
2019-01-30T16:15:32.454Z,994.72
2019-01-30T16:16:41.882Z,994.77
2019-01-30T16:17:51.565Z,994.77
2019-01-30T16:19:01.505Z,994.75
2019-01-30T16:20:11.428Z,994.78
2019-01-30T16:21:21.095Z,994.83
2019-01-30T16:22:30.770Z,994.78
2019-01-30T16:23:39.945Z,994.76
2019-01-30T16:24:49.122Z,994.79
2019-01-30T16:26:09.068Z,994.73
2019-01-30T16:27:18.986Z,994.74
2019-01-30T16:28:28.905Z,994.78
2019-01-30T16:29:38.825Z,994.75
2019-01-30T16:30:48.505Z,994.75
2019-01-30T16:31:58.190Z,994.77
2019-01-30T16:33:07.613Z,994.78
2019-01-30T16:34:17.533Z,994.75
2019-01-30T16:35:27.304Z,994.77
2019-01-30T16:36:36.730Z,994.77
2019-01-30T16:37:46.408Z,994.76
2019-01-30T16:38:55.330Z,994.81
2019-01-30T16:40:05.251Z,994.79
2019-01-30T16:41:14.668Z,994.82
2019-01-30T16:42:24.341Z,994.76
2019-01-30T16:43:33.887Z,994.79
2019-01-30T16:44:43.806Z,994.8
2019-01-30T16:45:53.474Z,994.83
2019-01-30T16:47:03.151Z,994.82
2019-01-30T16:48:12.823Z,994.79
2019-01-30T16:49:22.366Z,994.77
2019-01-30T16:50:34.274Z,994.83
2019-01-30T16:51:44.135Z,994.79
2019-01-30T16:52:53.807Z,994.74
2019-01-30T16:54:02.738Z,994.85
2019-01-30T16:55:12.414Z,994.78
2019-01-30T16:56:21.351Z,994.83
2019-01-30T16:57:30.780Z,994.82
2019-01-30T16:58:40.458Z,994.83
2019-01-30T16:59:49.885Z,994.8
2019-01-30T17:00:59.552Z,994.8
2019-01-30T17:02:09.531Z,994.82
2019-01-30T17:03:19.216Z,994.82
2019-01-30T17:04:28.261Z,994.85
2019-01-30T17:05:37.929Z,994.85
2019-01-30T17:06:47.847Z,994.82
2019-01-30T17:07:57.273Z,994.77
2019-01-30T17:09:07.251Z,994.84
2019-01-30T17:10:16.923Z,994.84
2019-01-30T17:11:26.150Z,994.8
2019-01-30T17:12:35.359Z,994.86
2019-01-30T17:13:45.114Z,994.85
2019-01-30T17:14:54.531Z,994.8
2019-01-30T17:16:04.198Z,994.82
2019-01-30T17:17:13.876Z,994.82
2019-01-30T17:18:24.297Z,994.81
2019-01-30T17:19:33.828Z,994.86
2019-01-30T17:20:43.250Z,994.88
2019-01-30T17:21:52.921Z,994.9
2019-01-30T17:23:02.591Z,994.93
2019-01-30T17:24:12.131Z,994.97
2019-01-30T17:25:22.056Z,994.95
2019-01-30T17:26:31.731Z,994.93
2019-01-30T17:27:41.651Z,994.94
2019-01-30T17:28:51.176Z,995.01
2019-01-30T17:30:01.203Z,994.99
2019-01-30T17:31:10.138Z,995.03
2019-01-30T17:32:20.063Z,995.01
2019-01-30T17:33:29.736Z,994.99
2019-01-30T17:34:39.662Z,994.98
2019-01-30T17:35:52.484Z,995
2019-01-30T17:37:02.169Z,994.99
2019-01-30T17:38:14.344Z,994.91
2019-01-30T17:39:25.815Z,994.95
2019-01-30T17:40:35.605Z,994.97
2019-01-30T17:41:45.283Z,994.93
2019-01-30T17:42:54.953Z,994.95
2019-01-30T17:44:04.874Z,994.94
2019-01-30T17:45:15.856Z,994.97
2019-01-30T17:46:27.869Z,994.97
2019-01-30T17:47:37.736Z,994.94
2019-01-30T17:48:48.809Z,994.96
2019-01-30T17:49:58.854Z,994.94
2019-01-30T17:51:08.875Z,994.97
2019-01-30T17:52:18.803Z,994.97
2019-01-30T17:53:28.738Z,994.95
2019-01-30T17:54:41.022Z,994.96
2019-01-30T17:55:51.123Z,994.92
2019-01-30T17:57:00.794Z,994.93
2019-01-30T17:58:10.225Z,994.9
2019-01-30T17:59:20.271Z,994.96
2019-01-30T18:00:29.691Z,994.95
2019-01-30T18:01:39.393Z,994.97
2019-01-30T18:02:49.315Z,994.93
2019-01-30T18:03:58.763Z,994.93
2019-01-30T18:05:08.180Z,994.91
2019-01-30T18:06:17.598Z,994.96
2019-01-30T18:07:37.415Z,994.91
2019-01-30T18:08:47.360Z,994.96
2019-01-30T18:09:57.034Z,994.92
2019-01-30T18:11:06.459Z,994.96
2019-01-30T18:12:15.877Z,994.93
2019-01-30T18:13:25.549Z,994.92
2019-01-30T18:14:34.974Z,994.93
2019-01-30T18:15:44.572Z,994.95
2019-01-30T18:16:53.992Z,994.95
2019-01-30T18:18:03.421Z,994.93
2019-01-30T18:19:13.223Z,994.87
2019-01-30T18:20:23.149Z,994.91
2019-01-30T18:21:32.322Z,994.89
2019-01-30T18:22:44.442Z,994.87
2019-01-30T18:23:54.614Z,994.89
2019-01-30T18:25:04.034Z,994.86
2019-01-30T18:26:13.472Z,994.87
2019-01-30T18:27:23.150Z,994.82
2019-01-30T18:28:32.320Z,994.84
2019-01-30T18:29:42.000Z,994.86
2019-01-30T18:30:51.419Z,994.85
2019-01-30T18:32:00.847Z,994.88
2019-01-30T18:33:10.271Z,994.87
2019-01-30T18:34:19.936Z,994.86
2019-01-30T18:35:29.489Z,994.82
2019-01-30T18:36:40.878Z,994.85
2019-01-30T18:37:51.287Z,994.87
2019-01-30T18:39:00.957Z,994.86
2019-01-30T18:40:10.485Z,994.84
2019-01-30T18:41:20.409Z,994.82
2019-01-30T18:42:30.457Z,994.83
2019-01-30T18:43:40.249Z,994.83
2019-01-30T18:44:53.002Z,994.85
2019-01-30T18:46:02.180Z,994.84
2019-01-30T18:47:11.605Z,994.8
2019-01-30T18:48:21.524Z,994.85
2019-01-30T18:49:31.445Z,994.8
2019-01-30T18:50:45.462Z,994.8
2019-01-30T18:51:57.314Z,994.75
2019-01-30T18:53:07.028Z,994.76
2019-01-30T18:54:16.955Z,994.76
2019-01-30T18:55:26.624Z,994.75
2019-01-30T18:56:38.735Z,994.75
2019-01-30T18:57:48.671Z,994.75
2019-01-30T18:58:58.342Z,994.73
2019-01-30T19:00:07.523Z,994.74
2019-01-30T19:01:16.696Z,994.72
2019-01-30T19:02:26.124Z,994.72
2019-01-30T19:03:35.294Z,994.71
2019-01-30T19:04:44.716Z,994.7
2019-01-30T19:05:54.644Z,994.72
2019-01-30T19:07:04.388Z,994.72
2019-01-30T19:08:13.820Z,994.72
2019-01-30T19:09:23.503Z,994.69
2019-01-30T19:10:33.174Z,994.72
2019-01-30T19:11:42.853Z,994.73
2019-01-30T19:12:52.768Z,994.69
2019-01-30T19:14:02.464Z,994.76
2019-01-30T19:15:11.911Z,994.75
2019-01-30T19:16:21.865Z,994.75
2019-01-30T19:17:31.570Z,994.76
2019-01-30T19:18:41.505Z,994.76
2019-01-30T19:19:54.254Z,994.75
2019-01-30T19:21:03.675Z,994.75
2019-01-30T19:22:13.366Z,994.74
2019-01-30T19:23:22.789Z,994.74
2019-01-30T19:24:32.209Z,994.79
2019-01-30T19:25:41.442Z,994.75
2019-01-30T19:26:50.619Z,994.76
2019-01-30T19:28:00.542Z,994.74
2019-01-30T19:29:10.334Z,994.72
2019-01-30T19:30:20.088Z,994.73
2019-01-30T19:31:29.559Z,994.75
2019-01-30T19:32:39.046Z,994.7
2019-01-30T19:33:48.228Z,994.72
2019-01-30T19:34:57.773Z,994.71
2019-01-30T19:36:07.224Z,994.69
2019-01-30T19:37:17.180Z,994.65
2019-01-30T19:38:26.724Z,994.7
2019-01-30T19:39:36.700Z,994.71
2019-01-30T19:40:46.711Z,994.74
2019-01-30T19:41:56.193Z,994.67
2019-01-30T19:43:06.129Z,994.72
2019-01-30T19:44:15.546Z,994.7
2019-01-30T19:45:24.724Z,994.73
2019-01-30T19:46:34.177Z,994.72
2019-01-30T19:47:43.946Z,994.68
2019-01-30T19:48:53.458Z,994.75
2019-01-30T19:50:02.916Z,994.72
2019-01-30T19:51:12.612Z,994.72
2019-01-30T19:52:22.355Z,994.69
2019-01-30T19:53:31.783Z,994.72
2019-01-30T19:54:41.747Z,994.7
2019-01-30T19:55:51.429Z,994.76
2019-01-30T19:57:00.893Z,994.79
2019-01-30T19:58:12.237Z,994.75
2019-01-30T19:59:21.803Z,994.75
2019-01-30T20:00:31.292Z,994.7
2019-01-30T20:01:41.236Z,994.72
2019-01-30T20:02:51.164Z,994.65
2019-01-30T20:04:00.911Z,994.72
2019-01-30T20:05:10.343Z,994.7
2019-01-30T20:06:19.856Z,994.74
2019-01-30T20:07:29.348Z,994.71
2019-01-30T20:08:38.800Z,994.7
2019-01-30T20:09:48.761Z,994.69
2019-01-30T20:10:58.569Z,994.68
2019-01-30T20:12:07.988Z,994.67
2019-01-30T20:13:17.492Z,994.68
2019-01-30T20:14:27.077Z,994.69
2019-01-30T20:15:37.234Z,994.68
2019-01-30T20:16:46.784Z,994.71
2019-01-30T20:17:56.709Z,994.72
2019-01-30T20:19:06.582Z,994.67
2019-01-30T20:20:16.665Z,994.74
2019-01-30T20:21:28.434Z,994.71
2019-01-30T20:22:38.143Z,994.72
2019-01-30T20:23:47.642Z,994.69
2019-01-30T20:24:56.856Z,994.68
2019-01-30T20:26:06.543Z,994.65
2019-01-30T20:27:16.239Z,994.69
2019-01-30T20:28:26.142Z,994.68
2019-01-30T20:29:35.322Z,994.73
2019-01-30T20:30:44.394Z,994.69
2019-01-30T20:31:54.077Z,994.73
2019-01-30T20:33:03.254Z,994.71
2019-01-30T20:34:12.976Z,994.72
2019-01-30T20:35:22.277Z,994.76
2019-01-30T20:36:31.818Z,994.78
2019-01-30T20:37:41.748Z,994.77
2019-01-30T20:38:51.826Z,994.79
2019-01-30T20:40:02.012Z,994.77
2019-01-30T20:41:11.507Z,994.78
2019-01-30T20:42:20.686Z,994.82
2019-01-30T20:43:30.156Z,994.81
2019-01-30T20:44:39.837Z,994.83
2019-01-30T20:45:49.518Z,994.86
2019-01-30T20:46:58.946Z,994.82
2019-01-30T20:48:08.395Z,994.79
2019-01-30T20:49:17.825Z,994.8
2019-01-30T20:50:27.541Z,994.84
2019-01-30T20:51:36.745Z,994.85
2019-01-30T20:52:46.292Z,994.87
2019-01-30T20:53:56.243Z,994.84
2019-01-30T20:55:07.789Z,994.85
2019-01-30T20:56:17.211Z,994.83
2019-01-30T20:57:26.752Z,994.86
2019-01-30T20:58:36.545Z,994.87
2019-01-30T20:59:46.156Z,994.88
2019-01-30T21:00:55.887Z,994.86
2019-01-30T21:02:05.888Z,994.88
2019-01-30T21:03:15.857Z,994.89
2019-01-30T21:04:25.559Z,994.9
2019-01-30T21:05:35.052Z,994.91
2019-01-30T21:06:47.879Z,994.92
2019-01-30T21:07:57.467Z,994.91
2019-01-30T21:09:06.894Z,994.91
2019-01-30T21:10:16.687Z,994.97
2019-01-30T21:11:26.179Z,994.97
2019-01-30T21:12:36.195Z,994.96
2019-01-30T21:13:45.869Z,994.96
2019-01-30T21:14:55.296Z,994.97
2019-01-30T21:16:05.249Z,994.96
2019-01-30T21:17:15.223Z,994.97
2019-01-30T21:18:24.888Z,994.97
2019-01-30T21:19:34.328Z,994.92
2019-01-30T21:20:44.004Z,994.97
2019-01-30T21:21:53.678Z,994.96
2019-01-30T21:23:03.600Z,994.95
2019-01-30T21:24:13.524Z,994.92
2019-01-30T21:25:23.446Z,994.92
2019-01-30T21:26:33.125Z,994.94
2019-01-30T21:27:42.804Z,994.95
2019-01-30T21:28:52.733Z,994.95
2019-01-30T21:30:02.701Z,994.88
2019-01-30T21:31:12.622Z,994.94
2019-01-30T21:32:22.291Z,994.96
2019-01-30T21:33:32.211Z,994.94
2019-01-30T21:34:41.887Z,994.97
2019-01-30T21:35:51.673Z,994.96
2019-01-30T21:37:01.097Z,994.96
2019-01-30T21:38:10.765Z,994.93
2019-01-30T21:39:20.188Z,995
2019-01-30T21:40:29.398Z,994.97
2019-01-30T21:41:38.564Z,994.95
2019-01-30T21:42:50.702Z,994.96
2019-01-30T21:44:00.635Z,994.95
2019-01-30T21:45:10.056Z,994.95
2019-01-30T21:46:19.742Z,994.97
2019-01-30T21:47:29.407Z,994.97
2019-01-30T21:48:39.078Z,994.98
2019-01-30T21:49:48.760Z,995
2019-01-30T21:50:58.430Z,994.99
2019-01-30T21:52:07.852Z,994.99
2019-01-30T21:53:17.273Z,995.04
2019-01-30T21:54:27.073Z,994.99
2019-01-30T21:55:36.994Z,995.03
2019-01-30T21:56:46.913Z,995.01
2019-01-30T21:57:56.692Z,994.98
2019-01-30T21:59:06.362Z,995
2019-01-30T22:00:15.783Z,995.02
2019-01-30T22:01:25.205Z,995.08
2019-01-30T22:02:34.626Z,995.06
2019-01-30T22:03:44.067Z,995.04
2019-01-30T22:04:53.992Z,995.06
2019-01-30T22:06:03.410Z,995.06
2019-01-30T22:07:12.829Z,995.03
2019-01-30T22:08:22.760Z,995.06
2019-01-30T22:09:32.426Z,995.04
2019-01-30T22:10:41.595Z,995.07
2019-01-30T22:11:51.269Z,995.08
2019-01-30T22:13:00.690Z,995.08
2019-01-30T22:14:10.119Z,995.06
2019-01-30T22:15:19.848Z,995.05
2019-01-30T22:16:29.536Z,995.11
2019-01-30T22:17:39.211Z,995.1
2019-01-30T22:18:48.654Z,995.12
2019-01-30T22:19:58.337Z,995.11
2019-01-30T22:21:07.510Z,995.09
2019-01-30T22:22:17.187Z,995.12
2019-01-30T22:23:29.857Z,995.16
2019-01-30T22:24:39.534Z,995.09
2019-01-30T22:25:49.231Z,995.08
2019-01-30T22:26:58.665Z,995.08
2019-01-30T22:28:08.334Z,995.09
2019-01-30T22:29:18.002Z,995.09
2019-01-30T22:30:27.676Z,995.1
2019-01-30T22:31:37.366Z,995.12
2019-01-30T22:32:47.287Z,995.11
2019-01-30T22:33:56.967Z,995.11
2019-01-30T22:35:06.897Z,995.13
2019-01-30T22:36:16.568Z,995.1
2019-01-30T22:37:26.490Z,995.11
2019-01-30T22:38:35.907Z,995.16
2019-01-30T22:39:45.576Z,995.12
2019-01-30T22:40:55.240Z,995.14
2019-01-30T22:42:05.166Z,995.17
2019-01-30T22:43:14.593Z,995.11
2019-01-30T22:44:24.374Z,995.12
2019-01-30T22:45:34.300Z,995.13
2019-01-30T22:46:44.220Z,995.1
2019-01-30T22:47:53.641Z,995.1
2019-01-30T22:49:03.576Z,995.14
2019-01-30T22:50:12.750Z,995.08
2019-01-30T22:51:22.417Z,995.09
2019-01-30T22:52:32.214Z,995.09
2019-01-30T22:53:42.136Z,995.1
2019-01-30T22:54:52.068Z,995.11
2019-01-30T22:56:01.735Z,995.09
2019-01-30T22:57:11.162Z,995.1
2019-01-30T22:58:21.139Z,995.1
2019-01-30T22:59:31.064Z,995.11
2019-01-30T23:00:40.779Z,995.15
2019-01-30T23:01:50.446Z,995.15
2019-01-30T23:03:00.118Z,995.15
2019-01-30T23:04:09.792Z,995.12
2019-01-30T23:05:19.217Z,995.16
2019-01-30T23:06:28.886Z,995.1
2019-01-30T23:07:38.554Z,995.16
2019-01-30T23:08:48.480Z,995.13
2019-01-30T23:09:58.145Z,995.15
2019-01-30T23:11:08.097Z,995.09
2019-01-30T23:12:18.015Z,995.15
2019-01-30T23:13:27.680Z,995.13
2019-01-30T23:14:36.600Z,995.19
2019-01-30T23:15:46.523Z,995.2
2019-01-30T23:16:56.231Z,995.19
2019-01-30T23:18:06.153Z,995.16
2019-01-30T23:19:16.077Z,995.13
2019-01-30T23:20:25.744Z,995.2
2019-01-30T23:21:35.657Z,995.2
2019-01-30T23:22:45.081Z,995.17
2019-01-30T23:23:54.752Z,995.19
2019-01-30T23:25:04.423Z,995.16
2019-01-30T23:26:14.096Z,995.2
2019-01-30T23:27:24.040Z,995.19
2019-01-30T23:28:33.711Z,995.19
2019-01-30T23:29:43.626Z,995.15
2019-01-30T23:30:53.046Z,995.15
2019-01-30T23:32:02.963Z,995.17
2019-01-30T23:33:12.631Z,995.16
2019-01-30T23:34:22.305Z,995.15
2019-01-30T23:35:32.340Z,995.2
2019-01-30T23:36:42.253Z,995.16
2019-01-30T23:37:52.865Z,995.2
2019-01-30T23:39:02.656Z,995.23
2019-01-30T23:40:12.077Z,995.22
2019-01-30T23:41:21.495Z,995.27
2019-01-30T23:42:30.778Z,995.23
2019-01-30T23:43:40.448Z,995.27
2019-01-30T23:44:49.366Z,995.28
2019-01-30T23:45:58.790Z,995.3
2019-01-30T23:47:08.456Z,995.23
2019-01-30T23:48:17.878Z,995.22
2019-01-30T23:49:27.553Z,995.18
2019-01-30T23:50:37.228Z,995.23
2019-01-30T23:51:46.898Z,995.21
2019-01-30T23:52:56.073Z,995.24
2019-01-30T23:54:05.245Z,995.23
2019-01-30T23:55:14.921Z,995.22
2019-01-30T23:56:24.343Z,995.24
2019-01-30T23:57:33.763Z,995.25
2019-01-30T23:58:43.429Z,995.24
2019-01-30T23:59:53.094Z,995.25
